Time;durP1;ratioP1;P1;durP2;ratioP2;P2;SDS_P1;SDS_P2;PMS_P1;PMS_P2;Temp;Humidity;BMP_temperature;BMP_pressure;BME280_temperature;BME280_humidity;BME280_pressure;Samples;Min_cycle;Max_cycle;Signal;HPM_P1;HPM_P2
2022/11/22 00:00:24;;;;;;;8.43;5.82;;;;;;;4.22;100.00;99083.41;1031998;28;20305;-82
2022/11/22 00:00:56;;;;;;;19.17;6.93;;;;;;;4.17;100.00;99075.38;1028168;28;20312;-82
2022/11/22 00:01:27;;;;;;;15.35;7.68;;;;;;;4.14;100.00;99071.34;1024980;28;20305;-82
2022/11/22 00:01:59;;;;;;;14.10;7.35;;;;;;;4.16;100.00;99084.28;1026074;28;20355;-81
2022/11/22 00:02:30;;;;;;;10.00;7.18;;;;;;;4.14;100.00;99079.25;1028851;28;20321;-81
2022/11/22 00:03:02;;;;;;;11.93;7.32;;;;;;;4.19;100.00;99073.31;1032342;28;20356;-81
2022/11/22 00:03:33;;;;;;;8.40;6.05;;;;;;;4.22;100.00;99083.41;1034213;28;20332;-82
2022/11/22 00:04:05;;;;;;;14.32;6.82;;;;;;;4.16;100.00;99079.03;1032363;28;20337;-82
2022/11/22 00:04:36;;;;;;;13.88;7.35;;;;;;;4.15;100.00;99072.94;1028307;28;20660;-82
2022/11/22 00:05:08;;;;;;;10.65;6.90;;;;;;;4.18;100.00;99074.34;1032923;28;20371;-82
2022/11/22 00:05:40;;;;;;;16.27;8.82;;;;;;;4.21;100.00;99073.91;1032241;28;20312;-82
2022/11/22 00:06:11;;;;;;;15.50;7.20;;;;;;;4.25;100.00;99073.25;1028159;28;20301;-81
2022/11/22 00:06:43;;;;;;;16.80;7.75;;;;;;;4.19;100.00;99073.31;1024468;28;20334;-82
2022/11/22 00:07:14;;;;;;;7.75;5.70;;;;;;;4.13;100.00;99074.19;1020181;29;20372;-81
2022/11/22 00:07:46;;;;;;;8.63;6.18;;;;;;;4.16;100.00;99068.47;1025224;28;20317;-82
2022/11/22 00:08:17;;;;;;;15.98;7.45;;;;;;;4.17;100.00;99064.81;1028713;28;20304;-81
2022/11/22 00:08:49;;;;;;;9.30;7.07;;;;;;;4.21;100.00;99066.00;1032679;28;20662;-82
2022/11/22 00:09:20;;;;;;;14.90;8.25;;;;;;;4.26;100.00;99059.03;1032245;28;20301;-82
2022/11/22 00:09:52;;;;;;;12.32;6.68;;;;;;;4.23;100.00;99061.31;1028002;28;20301;-82
2022/11/22 00:10:23;;;;;;;9.07;7.07;;;;;;;4.29;100.00;99058.59;1028277;28;20405;-81
2022/11/22 00:10:55;;;;;;;9.20;4.85;;;;;;;4.21;100.00;99055.47;1028171;28;20341;-81
2022/11/22 00:11:26;;;;;;;9.27;6.72;;;;;;;4.19;100.00;99057.50;1031442;28;20794;-82
2022/11/22 00:11:58;;;;;;;10.25;7.13;;;;;;;4.26;100.00;99064.31;1035819;28;20399;-81
2022/11/22 00:12:29;;;;;;;11.52;7.15;;;;;;;4.28;100.00;99064.09;1032602;28;20293;-81
2022/11/22 00:13:01;;;;;;;9.57;6.82;;;;;;;4.26;100.00;99063.50;1032227;28;20328;-81
2022/11/22 00:13:32;;;;;;;7.05;6.28;;;;;;;4.22;100.00;99057.06;1028976;28;20381;-81
2022/11/22 00:14:04;;;;;;;10.70;6.97;;;;;;;4.21;100.00;99055.47;1032442;28;20297;-81
2022/11/22 00:14:35;;;;;;;12.43;7.00;;;;;;;4.21;100.00;99050.19;1028898;28;20341;-81
2022/11/22 00:15:08;;;;;;;15.80;7.03;;;;;;;4.21;100.00;99058.91;1028120;28;20334;-82
2022/11/22 00:15:39;;;;;;;10.23;6.40;;;;;;;4.18;100.00;99051.44;1028093;28;20305;-82
2022/11/22 00:16:11;;;;;;;12.10;6.40;;;;;;;4.17;100.00;99060.38;1028668;28;20927;-82
2022/11/22 00:16:42;;;;;;;14.85;8.63;;;;;;;4.14;100.00;99054.72;1032160;28;20731;-82
2022/11/22 00:17:14;;;;;;;9.63;6.30;;;;;;;4.17;100.00;99054.28;1024316;28;20639;-82
2022/11/22 00:17:45;;;;;;;10.05;6.32;;;;;;;4.18;100.00;99050.63;1028588;28;20313;-81
2022/11/22 00:18:17;;;;;;;9.73;6.70;;;;;;;4.13;100.00;99048.66;1032733;28;20297;-81
2022/11/22 00:18:48;;;;;;;10.98;7.13;;;;;;;4.10;100.00;99053.53;1032675;28;21124;-81
2022/11/22 00:19:20;;;;;;;9.25;6.43;;;;;;;4.22;100.00;99054.44;1035748;28;20832;-81
2022/11/22 00:19:52;;;;;;;8.93;6.05;;;;;;;4.17;100.00;99044.56;1042754;28;20353;-81
2022/11/22 00:20:23;;;;;;;11.85;6.78;;;;;;;4.11;100.00;99047.22;1036985;28;20715;-82
2022/11/22 00:20:55;;;;;;;11.77;6.68;;;;;;;4.12;100.00;99054.94;1040763;28;20387;-82
2022/11/22 00:21:27;;;;;;;12.02;7.28;;;;;;;4.20;100.00;99056.47;1040404;28;20430;-81
2022/11/22 00:21:58;;;;;;;23.20;10.00;;;;;;;4.14;100.00;99050.25;1036228;28;20872;-81
2022/11/22 00:22:31;;;;;;;10.75;8.00;;;;;;;4.20;100.00;99048.56;1028050;28;20775;-81
2022/11/22 00:23:02;;;;;;;13.18;7.57;;;;;;;4.24;100.00;99049.75;1028873;28;20362;-81
2022/11/22 00:23:34;;;;;;;10.30;6.32;;;;;;;4.18;100.00;99053.25;1028963;28;20293;-82
2022/11/22 00:24:05;;;;;;;17.08;6.78;;;;;;;4.31;100.00;99053.09;1029224;28;20352;-82
2022/11/22 00:24:37;;;;;;;12.95;6.82;;;;;;;4.24;100.00;99052.38;1034506;28;20395;-82
2022/11/22 00:25:09;;;;;;;15.40;7.47;;;;;;;4.24;100.00;99044.47;1027734;28;20389;-82
2022/11/22 00:25:41;;;;;;;10.55;7.60;;;;;;;4.22;100.00;99057.06;1031868;28;20316;-81
2022/11/22 00:26:13;;;;;;;11.50;7.47;;;;;;;4.18;100.00;99058.53;1032432;28;20341;-81
2022/11/22 00:26:44;;;;;;;11.20;6.95;;;;;;;4.17;100.00;99059.56;1032517;28;20289;-82
2022/11/22 00:27:16;;;;;;;11.82;7.47;;;;;;;4.30;100.00;99052.31;1032016;28;20309;-81
2022/11/22 00:27:47;;;;;;;12.13;6.70;;;;;;;4.27;100.00;99049.31;1031247;28;20297;-82
2022/11/22 00:28:19;;;;;;;9.40;7.35;;;;;;;4.21;100.00;99056.25;1032698;28;20305;-81
2022/11/22 00:28:51;;;;;;;8.23;6.30;;;;;;;4.21;100.00;99048.34;1034494;28;20751;-81
2022/11/22 00:29:22;;;;;;;11.15;6.72;;;;;;;4.15;100.00;99045.78;1036466;28;20304;-82
2022/11/22 00:29:54;;;;;;;17.35;7.20;;;;;;;4.12;100.00;99047.03;1040557;28;20363;-82
2022/11/22 00:30:25;;;;;;;9.35;6.72;;;;;;;4.23;100.00;99053.41;1030751;28;20494;-82
2022/11/22 00:30:57;;;;;;;13.82;7.10;;;;;;;4.21;100.00;99055.47;1028059;28;20309;-81
2022/11/22 00:31:28;;;;;;;13.95;7.07;;;;;;;4.23;100.00;99046.31;1025488;28;20378;-82
2022/11/22 00:32:00;;;;;;;7.53;5.95;;;;;;;4.23;100.00;99051.56;1022860;28;20310;-81
2022/11/22 00:32:31;;;;;;;11.43;6.47;;;;;;;4.24;100.00;99049.75;1025865;28;20868;-81
2022/11/22 00:33:03;;;;;;;13.25;7.53;;;;;;;4.26;100.00;99048.50;1028023;28;20293;-82
2022/11/22 00:33:34;;;;;;;13.20;7.07;;;;;;;4.32;100.00;99049.44;1031686;28;20397;-82
2022/11/22 00:34:08;;;;;;;13.60;6.95;;;;;;;4.36;100.00;99042.72;1031166;28;20309;-82
2022/11/22 00:34:40;;;;;;;11.07;6.88;;;;;;;4.31;100.00;99045.19;1032208;28;20447;-82
2022/11/22 00:35:11;;;;;;;16.58;6.95;;;;;;;4.31;100.00;99047.84;1042826;28;20299;-81
2022/11/22 00:35:45;;;;;;;9.63;6.72;;;;;;;4.27;100.00;99049.31;1040604;28;20390;-82
2022/11/22 00:36:16;;;;;;;9.38;5.85;;;;;;;4.30;100.00;99059.41;1039358;28;20308;-82
2022/11/22 00:36:48;;;;;;;10.05;5.93;;;;;;;4.26;100.00;99047.69;1035713;28;20354;-82
2022/11/22 00:37:19;;;;;;;15.82;6.32;;;;;;;4.30;100.00;99054.94;1031498;28;20333;-82
2022/11/22 00:37:51;;;;;;;12.27;7.88;;;;;;;4.29;100.00;99047.25;1031306;28;20324;-81
2022/11/22 00:38:22;;;;;;;13.38;7.18;;;;;;;4.24;100.00;99044.47;1032018;28;20388;-82
2022/11/22 00:38:54;;;;;;;11.15;6.25;;;;;;;4.30;100.00;99043.59;1035434;28;20363;-81
2022/11/22 00:39:25;;;;;;;15.57;6.78;;;;;;;4.28;100.00;99048.28;1039573;28;20375;-81
2022/11/22 00:39:57;;;;;;;8.48;5.90;;;;;;;4.27;100.00;99049.31;1031778;28;20324;-81
2022/11/22 00:40:30;;;;;;;12.75;6.35;;;;;;;4.23;100.00;99048.94;1037735;28;20384;-81
2022/11/22 00:41:01;;;;;;;11.95;5.97;;;;;;;4.30;100.00;99046.22;1037575;28;20305;-82
2022/11/22 00:41:33;;;;;;;12.02;6.88;;;;;;;4.30;100.00;99043.59;1036219;28;20490;-81
2022/11/22 00:42:04;;;;;;;11.82;7.25;;;;;;;4.27;100.00;99050.09;1035781;28;20289;-82
2022/11/22 00:42:36;;;;;;;10.35;7.30;;;;;;;4.29;100.00;99048.06;1035239;28;20773;-82
2022/11/22 00:43:07;;;;;;;8.52;6.50;;;;;;;4.38;100.00;99050.41;1036620;28;20386;-82
2022/11/22 00:43:39;;;;;;;11.15;6.82;;;;;;;4.30;100.00;99049.66;1035579;28;20320;-82
2022/11/22 00:44:10;;;;;;;13.70;6.57;;;;;;;4.29;100.00;99052.53;1033117;28;20308;-82
2022/11/22 00:44:42;;;;;;;11.77;7.63;;;;;;;4.23;100.00;99042.88;1031783;28;20352;-82
2022/11/22 00:45:13;;;;;;;14.18;7.55;;;;;;;4.26;100.00;99045.06;1034424;28;20388;-82
2022/11/22 00:45:45;;;;;;;10.45;6.38;;;;;;;4.24;100.00;99044.47;1035554;28;20781;-82
2022/11/22 00:46:16;;;;;;;11.70;6.47;;;;;;;4.29;100.00;99044.63;1027960;28;20388;-82
2022/11/22 00:46:48;;;;;;;13.52;7.40;;;;;;;4.31;100.00;99045.19;1031920;28;20297;-82
2022/11/22 00:47:19;;;;;;;13.70;6.90;;;;;;;4.35;100.00;99047.19;1035761;28;20285;-82
2022/11/22 00:47:51;;;;;;;9.98;5.93;;;;;;;4.32;100.00;99052.09;1028049;28;20334;-81
2022/11/22 00:48:22;;;;;;;12.85;7.43;;;;;;;4.35;100.00;99049.81;1032094;28;20822;-82
2022/11/22 00:48:54;;;;;;;12.80;7.25;;;;;;;4.35;100.00;99052.44;1035848;28;20324;-82
2022/11/22 00:49:25;;;;;;;11.07;6.70;;;;;;;4.26;100.00;99050.34;1036109;28;20344;-82
2022/11/22 00:49:58;;;;;;;9.57;6.93;;;;;;;4.31;100.00;99055.75;1035219;28;20928;-82
2022/11/22 00:50:29;;;;;;;12.57;7.45;;;;;;;4.27;100.00;99049.31;1031468;28;20913;-82
2022/11/22 00:51:00;;;;;;;10.85;7.05;;;;;;;4.33;100.00;99054.50;1031508;28;20420;-82
2022/11/22 00:51:32;;;;;;;11.88;6.63;;;;;;;4.29;100.00;99052.53;1031125;28;20376;-82
2022/11/22 00:52:04;;;;;;;18.98;10.20;;;;;;;4.27;100.00;99049.31;1035823;28;20293;-82
2022/11/22 00:52:35;;;;;;;13.48;6.75;;;;;;;4.31;100.00;99045.19;1035347;28;20309;-82
2022/11/22 00:53:07;;;;;;;16.40;8.90;;;;;;;4.34;100.00;99050.84;1036134;28;20766;-82
2022/11/22 00:53:38;;;;;;;12.40;7.05;;;;;;;4.36;100.00;99047.97;1036086;28;20416;-82
2022/11/22 00:54:09;;;;;;;13.05;7.45;;;;;;;4.32;100.00;99058.16;1035912;28;20383;-82
2022/11/22 00:54:41;;;;;;;12.60;7.40;;;;;;;4.37;100.00;99048.78;1031147;28;20329;-82
2022/11/22 00:55:13;;;;;;;11.15;8.13;;;;;;;4.36;100.00;99050.63;1028139;28;20326;-81
2022/11/22 00:55:44;;;;;;;11.35;6.63;;;;;;;4.33;100.00;99053.69;1027904;28;20812;-82
2022/11/22 00:56:16;;;;;;;13.93;6.75;;;;;;;4.40;100.00;99049.19;1028355;28;20293;-82
2022/11/22 00:56:47;;;;;;;12.48;7.00;;;;;;;4.37;100.00;99049.59;1036221;28;20397;-82
2022/11/22 00:57:19;;;;;;;15.32;7.32;;;;;;;4.32;100.00;99046.81;1032538;28;20301;-82
2022/11/22 00:57:50;;;;;;;13.70;7.57;;;;;;;4.36;100.00;99045.34;1031021;28;21041;-82
2022/11/22 00:58:22;;;;;;;10.10;7.45;;;;;;;4.33;100.00;99043.16;1027726;28;20345;-82
2022/11/22 00:58:54;;;;;;;9.40;6.65;;;;;;;4.30;100.00;99039.13;1023619;28;20434;-82
2022/11/22 00:59:25;;;;;;;13.45;7.25;;;;;;;4.29;100.00;99047.25;1031669;28;20404;-82
2022/11/22 00:59:57;;;;;;;14.05;7.30;;;;;;;4.30;100.00;99043.59;1035570;28;20434;-82
2022/11/22 01:00:28;;;;;;;14.60;6.43;;;;;;;4.35;100.00;99049.00;1031503;28;20347;-82
2022/11/22 01:01:00;;;;;;;9.07;6.60;;;;;;;4.33;100.00;99045.78;1027109;28;20373;-82
2022/11/22 01:01:32;;;;;;;8.32;6.13;;;;;;;4.33;100.00;99043.16;1027388;28;20388;-82
2022/11/22 01:02:03;;;;;;;11.93;6.75;;;;;;;4.33;100.00;99045.78;1019286;29;20314;-82
2022/11/22 01:02:35;;;;;;;14.05;6.88;;;;;;;4.33;100.00;99049.22;1021718;28;20351;-82
2022/11/22 01:03:10;;;;;;;11.00;6.82;;;;;;;4.30;100.00;99051.50;1031680;28;20348;-82
2022/11/22 01:03:42;;;;;;;15.77;7.18;;;;;;;4.28;100.00;99040.38;1036357;28;20439;-82
2022/11/22 01:04:13;;;;;;;22.63;8.15;;;;;;;4.27;100.00;99044.03;1029745;28;20384;-82
2022/11/22 01:04:46;;;;;;;15.10;7.00;;;;;;;4.30;100.00;99043.59;1027244;28;20384;-82
2022/11/22 01:05:17;;;;;;;15.13;7.72;;;;;;;4.29;100.00;99044.63;1031435;28;20790;-82
2022/11/22 01:05:49;;;;;;;11.40;6.35;;;;;;;4.36;100.00;99042.72;1032049;28;20308;-82
2022/11/22 01:06:20;;;;;;;8.43;6.22;;;;;;;4.26;100.00;99043.22;1032398;28;20826;-82
2022/11/22 01:06:52;;;;;;;8.27;6.90;;;;;;;4.39;100.00;99044.94;1035426;28;20391;-82
2022/11/22 01:07:23;;;;;;;13.38;7.45;;;;;;;4.31;100.00;99050.47;1031555;28;20305;-82
2022/11/22 01:07:55;;;;;;;10.80;7.35;;;;;;;4.36;100.00;99040.06;1031356;28;20348;-82
2022/11/22 01:08:26;;;;;;;20.35;6.75;;;;;;;4.39;100.00;99047.56;1031210;28;20425;-82
2022/11/22 01:08:58;;;;;;;9.85;7.43;;;;;;;4.37;100.00;99039.03;1032080;28;20698;-82
2022/11/22 01:09:29;;;;;;;9.52;6.38;;;;;;;4.33;100.00;99048.41;1035307;28;20324;-82
2022/11/22 01:10:01;;;;;;;10.07;6.68;;;;;;;4.35;100.00;99046.38;1031661;28;20306;-82
2022/11/22 01:10:35;;;;;;;9.60;7.07;;;;;;;4.27;100.00;99051.94;1034123;28;20305;-82
2022/11/22 01:11:07;;;;;;;12.60;7.38;;;;;;;4.37;100.00;99052.22;1035547;28;20300;-82
2022/11/22 01:11:39;;;;;;;10.65;6.68;;;;;;;4.41;100.00;99048.16;1036364;28;20364;-82
2022/11/22 01:12:10;;;;;;;12.77;6.65;;;;;;;4.38;100.00;99055.66;1032044;28;20397;-81
2022/11/22 01:12:42;;;;;;;11.77;7.07;;;;;;;4.31;100.00;99055.75;1032101;28;20297;-82
2022/11/22 01:13:13;;;;;;;9.93;5.93;;;;;;;4.39;100.00;99049.41;1035405;28;20443;-82
2022/11/22 01:13:45;;;;;;;9.10;6.57;;;;;;;4.32;100.00;99046.81;1036144;28;20309;-82
2022/11/22 01:14:17;;;;;;;14.10;6.93;;;;;;;4.30;100.00;99062.84;1043719;28;20283;-82
2022/11/22 01:14:49;;;;;;;13.20;7.65;;;;;;;4.29;100.00;99047.25;1043854;28;20306;-82
2022/11/22 01:15:20;;;;;;;12.18;6.47;;;;;;;4.25;100.00;99057.44;1034530;28;20764;-82
2022/11/22 01:15:53;;;;;;;9.50;6.60;;;;;;;4.31;100.00;99056.53;1035487;28;20379;-82
2022/11/22 01:16:25;;;;;;;10.43;6.38;;;;;;;4.32;100.00;99052.09;1035928;28;20399;-82
2022/11/22 01:16:56;;;;;;;8.57;6.53;;;;;;;4.30;100.00;99059.41;1032779;28;20313;-81
2022/11/22 01:17:28;;;;;;;12.48;7.43;;;;;;;4.30;100.00;99064.69;1031088;28;20655;-82
2022/11/22 01:17:59;;;;;;;14.93;7.90;;;;;;;4.37;100.00;99060.13;1031756;28;20428;-82
2022/11/22 01:18:32;;;;;;;10.02;6.85;;;;;;;4.41;100.00;99066.59;1035399;28;20336;-82
2022/11/22 01:19:03;;;;;;;10.10;6.65;;;;;;;4.37;100.00;99054.88;1031883;28;20755;-82
2022/11/22 01:19:35;;;;;;;8.93;6.47;;;;;;;4.41;100.00;99065.78;1032128;28;20372;-82
2022/11/22 01:20:07;;;;;;;7.72;6.18;;;;;;;4.45;100.00;99062.50;1033383;28;20321;-82
2022/11/22 01:20:39;;;;;;;10.23;6.78;;;;;;;4.45;100.00;99062.50;1030877;28;20299;-82
2022/11/22 01:21:11;;;;;;;12.27;8.00;;;;;;;4.39;100.00;99068.66;1030424;28;20316;-82
2022/11/22 01:21:43;;;;;;;9.45;6.57;;;;;;;4.39;100.00;99063.38;1023565;28;20820;-82
2022/11/22 01:22:15;;;;;;;9.57;6.47;;;;;;;4.39;100.00;99063.38;1023677;28;20326;-82
2022/11/22 01:22:46;;;;;;;13.50;6.70;;;;;;;4.45;100.00;99061.69;1031990;28;20302;-82
2022/11/22 01:23:18;;;;;;;10.05;6.43;;;;;;;4.53;100.00;99064.03;1032106;28;20371;-82
2022/11/22 01:23:50;;;;;;;15.45;6.32;;;;;;;4.43;100.00;99064.56;1035391;28;20297;-82
2022/11/22 01:24:21;;;;;;;15.32;6.63;;;;;;;4.45;100.00;99056.41;1027296;28;20364;-82
2022/11/22 01:24:53;;;;;;;8.60;5.90;;;;;;;4.50;100.00;99057.38;1027208;28;20380;-81
2022/11/22 01:25:24;;;;;;;8.02;5.90;;;;;;;4.43;100.00;99054.00;1029147;28;20298;-81
2022/11/22 01:25:56;;;;;;;10.98;6.57;;;;;;;4.50;100.00;99057.38;1031725;28;20787;-82
2022/11/22 01:26:27;;;;;;;13.93;6.57;;;;;;;4.42;100.00;99059.50;1036194;28;20813;-81
2022/11/22 01:26:59;;;;;;;10.85;6.60;;;;;;;4.38;100.00;99056.47;1033155;28;20325;-81
2022/11/22 01:27:30;;;;;;;12.35;6.60;;;;;;;4.50;100.00;99062.63;1035209;28;20320;-81
2022/11/22 01:28:03;;;;;;;10.70;5.90;;;;;;;4.54;100.00;99055.91;1031808;28;21151;-81
2022/11/22 01:28:35;;;;;;;9.02;5.57;;;;;;;4.56;100.00;99050.41;1031502;28;20337;-81
2022/11/22 01:29:06;;;;;;;12.43;6.72;;;;;;;4.56;100.00;99053.84;1027233;28;20308;-81
2022/11/22 01:29:38;;;;;;;8.52;5.78;;;;;;;4.47;100.00;99060.44;1027872;28;20345;-81
2022/11/22 01:30:10;;;;;;;10.40;6.72;;;;;;;4.51;100.00;99052.91;1035751;28;20654;-81
2022/11/22 01:30:41;;;;;;;12.48;6.95;;;;;;;4.43;100.00;99059.28;1027214;28;20298;-81
2022/11/22 01:31:13;;;;;;;13.00;6.32;;;;;;;4.40;100.00;99062.34;1023464;28;20299;-81
2022/11/22 01:31:44;;;;;;;12.30;6.30;;;;;;;4.40;100.00;99065.00;1027400;28;20377;-81
2022/11/22 01:32:16;;;;;;;10.18;7.00;;;;;;;4.35;100.00;99060.34;1026066;28;20803;-81
2022/11/22 01:32:47;;;;;;;9.60;7.18;;;;;;;4.40;100.00;99059.72;1036292;28;20394;-81
2022/11/22 01:33:19;;;;;;;13.77;6.88;;;;;;;4.44;100.00;99063.53;1043817;28;20390;-81
2022/11/22 01:33:51;;;;;;;9.68;6.60;;;;;;;4.49;100.00;99058.38;1043627;28;20770;-82
2022/11/22 01:34:22;;;;;;;13.05;6.32;;;;;;;4.37;100.00;99054.88;1038812;28;20335;-81
2022/11/22 01:34:54;;;;;;;10.95;6.63;;;;;;;4.51;100.00;99056.34;1032462;28;20297;-81
2022/11/22 01:35:26;;;;;;;9.27;6.05;;;;;;;4.46;100.00;99058.84;1032153;28;20424;-81
2022/11/22 01:35:58;;;;;;;9.93;6.88;;;;;;;4.50;100.00;99056.56;1031874;28;20651;-81
2022/11/22 01:36:29;;;;;;;11.70;6.70;;;;;;;4.45;100.00;99059.88;1035299;28;20328;-81
2022/11/22 01:37:01;;;;;;;12.05;6.25;;;;;;;4.49;100.00;99053.13;1035577;28;20328;-81
2022/11/22 01:37:32;;;;;;;11.25;6.00;;;;;;;4.49;100.00;99055.75;1037036;28;20702;-82
2022/11/22 01:38:04;;;;;;;15.27;7.63;;;;;;;4.39;100.00;99047.56;1034585;28;20301;-81
2022/11/22 01:38:35;;;;;;;11.52;8.15;;;;;;;4.44;100.00;99052.97;1035407;28;20296;-81
2022/11/22 01:39:07;;;;;;;15.93;7.18;;;;;;;4.41;100.00;99050.78;1035396;28;20378;-81
2022/11/22 01:39:38;;;;;;;14.95;7.20;;;;;;;4.44;100.00;99055.63;1034807;28;20378;-81
2022/11/22 01:40:10;;;;;;;10.25;6.47;;;;;;;4.42;100.00;99060.31;1035320;28;20300;-81
2022/11/22 01:40:42;;;;;;;9.20;6.13;;;;;;;4.46;100.00;99058.03;1028209;28;20385;-82
2022/11/22 01:41:13;;;;;;;9.27;6.75;;;;;;;4.56;100.00;99059.13;1030816;28;20386;-81
2022/11/22 01:41:45;;;;;;;10.85;6.65;;;;;;;4.51;100.00;99055.53;1031459;28;20762;-81
2022/11/22 01:42:16;;;;;;;10.93;7.25;;;;;;;4.44;100.00;99055.63;1033246;28;20356;-81
2022/11/22 01:42:54;;;;;;;8.80;7.35;;;;;;;4.53;100.00;99046.38;1035018;28;20308;-81
2022/11/22 01:43:26;;;;;;;14.45;7.07;;;;;;;4.45;100.00;99054.59;1037668;28;20379;-81
2022/11/22 01:44:20;;;;;;;9.02;5.97;;;;;;;4.50;100.00;99060.00;1035564;28;20873;-81
2022/11/22 01:44:52;;;;;;;14.23;6.50;;;;;;;4.45;100.00;99051.94;1027176;28;20298;-81
2022/11/22 01:45:29;;;;;;;9.07;5.95;;;;;;;4.47;100.00;99055.16;1023306;28;20680;-81
2022/11/22 01:46:07;;;;;;;17.38;6.97;;;;;;;4.43;100.00;99046.09;1031475;28;20337;-81
2022/11/22 01:46:39;;;;;;;20.17;7.53;;;;;;;4.45;100.00;99048.50;1031243;28;20333;-81
2022/11/22 01:47:19;;;;;;;8.73;5.72;;;;;;;4.48;100.00;99055.97;1037420;28;20324;-81
2022/11/22 01:47:51;;;;;;;14.35;7.47;;;;;;;4.49;100.00;99052.31;1035182;28;20678;-81
2022/11/22 01:48:46;;;;;;;11.27;6.18;;;;;;;4.43;100.00;99051.38;1036773;28;20491;-81
2022/11/22 01:49:40;;;;;;;13.88;6.65;;;;;;;4.45;100.00;99051.94;1036584;28;20635;-81
2022/11/22 01:50:15;;;;;;;9.05;6.07;;;;;;;4.35;100.00;99056.91;1036244;28;20337;-81
2022/11/22 01:50:50;;;;;;;8.43;6.20;;;;;;;4.46;100.00;99053.56;1034971;28;20321;-81
2022/11/22 01:51:29;;;;;;;9.07;5.82;;;;;;;4.46;100.00;99050.94;1031468;28;20387;-81
2022/11/22 01:52:12;;;;;;;8.63;5.72;;;;;;;4.37;100.00;99044.31;1025498;28;20302;-81
2022/11/22 01:52:44;;;;;;;9.82;5.65;;;;;;;4.44;100.00;99047.72;1030351;28;20511;-81
2022/11/22 01:53:19;;;;;;;8.90;6.53;;;;;;;4.45;100.00;99041.41;1025961;28;20372;-81
2022/11/22 01:53:53;;;;;;;9.20;5.22;;;;;;;4.51;100.00;99053.69;1026026;28;20710;-81
2022/11/22 01:54:26;;;;;;;10.73;6.22;;;;;;;4.41;100.00;99050.78;1027291;28;20343;-81
2022/11/22 01:55:03;;;;;;;13.10;6.45;;;;;;;4.51;100.00;99053.69;1030806;28;20321;-81
2022/11/22 01:55:35;;;;;;;17.10;6.00;;;;;;;4.59;100.00;99040.22;1036638;28;20307;-81
2022/11/22 01:56:11;;;;;;;6.57;5.75;;;;;;;4.55;100.00;99039.03;1034617;28;20437;-81
2022/11/22 01:56:46;;;;;;;14.15;6.22;;;;;;;4.51;100.00;99032.59;1031300;28;20392;-81
2022/11/22 01:57:20;;;;;;;11.70;6.30;;;;;;;4.54;100.00;99042.72;1021004;28;20733;-81
2022/11/22 01:57:51;;;;;;;9.02;5.80;;;;;;;4.52;100.00;99042.13;1020995;28;20765;-81
2022/11/22 01:58:23;;;;;;;13.07;6.43;;;;;;;4.42;100.00;99036.56;1025610;28;20317;-81
2022/11/22 01:59:02;;;;;;;12.77;7.20;;;;;;;4.40;100.00;99043.09;1028774;28;20294;-81
2022/11/22 01:59:35;;;;;;;13.68;6.43;;;;;;;4.32;100.00;99049.44;1032594;28;20386;-81
2022/11/22 02:00:13;;;;;;;9.20;6.10;;;;;;;4.33;100.00;99043.16;1031181;28;20723;-81
2022/11/22 02:00:50;;;;;;;10.98;5.50;;;;;;;4.39;100.00;99044.94;1031214;28;20444;-82
2022/11/22 02:01:21;;;;;;;10.20;6.05;;;;;;;4.45;100.00;99046.69;1033512;28;20305;-82
2022/11/22 02:01:53;;;;;;;12.50;6.72;;;;;;;4.39;100.00;99039.66;1037176;28;20806;-81
2022/11/22 02:02:25;;;;;;;9.20;5.82;;;;;;;4.43;100.00;99040.03;1038108;28;20308;-81
2022/11/22 02:02:59;;;;;;;13.10;6.22;;;;;;;4.39;100.00;99042.28;1039589;28;20732;-81
2022/11/22 02:03:32;;;;;;;12.63;7.15;;;;;;;4.42;100.00;99031.31;1033783;28;20299;-81
2022/11/22 02:04:05;;;;;;;7.00;5.70;;;;;;;4.43;100.00;99030.28;1035480;28;20337;-81
2022/11/22 02:04:37;;;;;;;10.65;6.63;;;;;;;4.40;100.00;99032.56;1035337;28;20390;-82
2022/11/22 02:05:12;;;;;;;8.65;5.82;;;;;;;4.30;100.00;99038.31;1030593;28;20380;-81
2022/11/22 02:05:44;;;;;;;6.57;5.03;;;;;;;4.28;100.00;99035.09;1023394;28;20843;-81
2022/11/22 02:06:16;;;;;;;8.77;5.90;;;;;;;4.39;100.00;99031.75;1028490;28;20781;-81
2022/11/22 02:06:58;;;;;;;9.30;6.13;;;;;;;4.36;100.00;99032.16;1028196;28;20302;-81
2022/11/22 02:07:53;;;;;;;6.93;5.32;;;;;;;4.25;100.00;99040.81;1027253;28;20801;-82
2022/11/22 02:08:39;;;;;;;9.45;5.40;;;;;;;4.25;100.00;99041.63;1028073;28;20302;-81
2022/11/22 02:09:11;;;;;;;9.50;5.50;;;;;;;4.27;100.00;99041.41;1028341;28;20333;-81
2022/11/22 02:09:44;;;;;;;8.50;5.45;;;;;;;4.23;100.00;99042.88;1026975;28;20437;-81
2022/11/22 02:10:16;;;;;;;7.38;6.03;;;;;;;4.24;100.00;99044.47;1029222;28;20334;-82
2022/11/22 02:10:49;;;;;;;12.27;5.93;;;;;;;4.38;100.00;99045.13;1031354;28;20764;-81
2022/11/22 02:11:21;;;;;;;12.68;6.10;;;;;;;4.42;100.00;99047.13;1033742;28;20300;-81
2022/11/22 02:11:55;;;;;;;12.70;5.55;;;;;;;4.38;100.00;99045.13;1034731;28;20552;-81
2022/11/22 02:12:28;;;;;;;12.18;6.43;;;;;;;4.40;100.00;99043.91;1031948;28;20388;-81
2022/11/22 02:12:59;;;;;;;7.55;5.25;;;;;;;4.39;100.00;99042.28;1035252;28;20770;-81
2022/11/22 02:13:33;;;;;;;9.00;5.65;;;;;;;4.36;100.00;99042.72;1030935;28;20379;-82
2022/11/22 02:14:07;;;;;;;8.27;5.43;;;;;;;4.37;100.00;99046.16;1023673;28;20311;-81
2022/11/22 02:14:39;;;;;;;15.15;6.25;;;;;;;4.43;100.00;99043.47;1027075;28;20894;-81
2022/11/22 02:15:11;;;;;;;10.23;5.65;;;;;;;4.42;100.00;99047.13;1030205;28;20337;-82
2022/11/22 02:15:42;;;;;;;10.02;7.40;;;;;;;4.51;100.00;99051.06;1031652;28;20383;-81
2022/11/22 02:16:14;;;;;;;8.95;6.63;;;;;;;4.42;100.00;99052.41;1035095;28;20324;-81
2022/11/22 02:16:46;;;;;;;9.15;6.20;;;;;;;4.44;100.00;99049.53;1026244;28;20880;-81
2022/11/22 02:17:18;;;;;;;9.95;6.65;;;;;;;4.45;100.00;99051.94;1031887;28;20720;-82
2022/11/22 02:17:50;;;;;;;7.63;5.32;;;;;;;4.46;100.00;99047.47;1035212;28;20352;-81
2022/11/22 02:18:21;;;;;;;11.27;6.38;;;;;;;4.46;100.00;99053.56;1037065;28;20386;-82
2022/11/22 02:18:53;;;;;;;8.50;6.13;;;;;;;4.44;100.00;99054.81;1039233;28;20449;-81
2022/11/22 02:19:38;;;;;;;7.63;6.07;;;;;;;4.53;100.00;99040.28;1038973;28;20312;-81
2022/11/22 02:20:10;;;;;;;7.40;6.53;;;;;;;4.59;100.00;99048.13;1039308;28;20480;-81
2022/11/22 02:20:42;;;;;;;10.15;6.43;;;;;;;4.49;100.00;99041.78;1041726;28;20659;-81
2022/11/22 02:21:13;;;;;;;9.13;5.22;;;;;;;4.53;100.00;99043.75;1039001;28;20342;-81
2022/11/22 02:21:48;;;;;;;8.65;6.72;;;;;;;4.52;100.00;99055.31;1035303;28;20472;-81
2022/11/22 02:22:25;;;;;;;8.80;5.78;;;;;;;4.46;100.00;99053.56;1033174;28;20313;-81
2022/11/22 02:23:05;;;;;;;11.82;6.25;;;;;;;4.46;100.00;99048.28;1033232;28;20384;-81
2022/11/22 02:24:15;;;;;;;10.70;6.45;;;;;;;4.65;100.00;99044.59;1037660;28;20386;-81
2022/11/22 02:24:54;;;;;;;13.40;5.82;;;;;;;4.71;100.00;99047.41;1032555;28;20305;-81
2022/11/22 02:25:34;;;;;;;10.32;5.97;;;;;;;4.68;100.00;99042.56;1032813;28;20289;-82
2022/11/22 02:26:05;;;;;;;9.60;6.15;;;;;;;4.59;100.00;99052.59;1031352;28;20379;-81
2022/11/22 02:26:37;;;;;;;7.15;5.35;;;;;;;4.65;100.00;99046.44;1033622;28;20293;-81
2022/11/22 02:27:08;;;;;;;14.38;7.20;;;;;;;4.62;100.00;99045.03;1030917;28;20455;-81
2022/11/22 02:27:40;;;;;;;6.85;6.15;;;;;;;4.74;100.00;99034.56;1032129;28;20340;-82
2022/11/22 02:28:12;;;;;;;9.95;6.35;;;;;;;4.65;100.00;99041.16;1030704;28;20302;-82
2022/11/22 02:28:44;;;;;;;11.65;6.80;;;;;;;4.70;100.00;99048.44;1027011;28;20390;-81
2022/11/22 02:29:16;;;;;;;10.95;6.47;;;;;;;4.69;100.00;99044.19;1027999;28;20325;-81
2022/11/22 02:29:48;;;;;;;11.23;6.38;;;;;;;4.74;100.00;99044.31;1024367;28;20449;-81
2022/11/22 02:30:20;;;;;;;8.82;6.43;;;;;;;4.72;100.00;99043.72;1031501;28;20301;-81
2022/11/22 02:30:51;;;;;;;12.65;7.25;;;;;;;4.69;100.00;99041.53;1030818;28;20826;-82
2022/11/22 02:31:37;;;;;;;13.02;7.00;;;;;;;4.70;100.00;99038.69;1028178;28;20370;-81
2022/11/22 02:32:08;;;;;;;11.20;5.95;;;;;;;4.60;100.00;99039.19;1034932;28;20297;-81
2022/11/22 02:32:40;;;;;;;9.15;5.38;;;;;;;4.57;100.00;99039.63;1038931;28;20379;-82
2022/11/22 02:33:12;;;;;;;11.32;6.80;;;;;;;4.61;100.00;99046.06;1037579;28;20303;-82